Meteo Giornale » Osservazioni meteo Gran Bretagna » Boulmer

ore: 20:50 - Osservazioni Meteo Boulmer
Lat. 55° 25' N Lon. 1° 36' W Alt. 23 metri s.l.m.

molto_nuvoloso Europe/London

15 °C

Molto Nuvoloso

Temp. 24 Ore

11 °C

18 °C

Nord

5.5 Km/h

Dew point 14 °C

Umidità 93 %

Visibilità  10 Km

Il sole sorge alle ore 04:51

Il sole tramonta alle ore 21:34

Data e Ora Cielo e Fenomeni T °C DP °C Um. % Pres. hPa Vis. km Vento km/h
Oggi h: 20:50 molto_nuvoloso Molto Nuvoloso 15 14 93 1012 10 N 5.5
Oggi h: 19:50 molto_nuvoloso Molto Nuvoloso 16 14 87 1012 10 S/SE 7.4
Oggi h: 18:50 molto_nuvoloso Molto Nuvoloso 17 15 88 1012 10 S/SO 9.3
Oggi h: 17:50 coperto_pioggia Pioggia Debole 17 15 88 1012 10 SO 14.8
Oggi h: 16:50 coperto_pioggia Pioggia Debole 17 14 82 1012 10 SO 13
Oggi h: 15:50 molto_nuvoloso Molto Nuvoloso 16 14 87 1012 10 S/SO 11.1
Oggi h: 14:50 coperto_pioggia Pioggia 16 15 93 1013 10 SO 11.1
Oggi h: 13:50 coperto_pioggia Pioggia 15 14 93 1013 9 S 13
Oggi h: 12:50 coperto_pioggia Pioggia Debole 18 13 72 1012 10 S/SO 18.5
Oggi h: 11:50 coperto_pioggia Pioggia Debole 17 11 67 1013 10 SO 22.2
Oggi h: 10:50 poco_nuvoloso Poco Nuvoloso 18 11 63 1013 10 SO 18.5
Oggi h: 09:50 molto_nuvoloso Molto Nuvoloso 18 11 63 1013 10 S/SO 14.8
Oggi h: 08:50 molto_nuvoloso Molto Nuvoloso 18 10 59 1013 10 SO 16.7
Oggi h: 07:50 coperto Coperto 15 11 76 1013 10 SO 13
Oggi h: 06:50 molto_nuvoloso Molto Nuvoloso 14 11 82 1014 10 SO 13
Oggi h: 05:50 coperto Coperto 13 10 81 1014 10 O/SO 13
Oggi h: 04:50 coperto Coperto 13 10 81 1014 10 O/SO 16.7
Oggi h: 03:50 coperto Coperto 11 9 87 1015 10 O/SO 9.3
Oggi h: 02:50 molto_nuvoloso Molto Nuvoloso 12 9 81 1015 10 N 5.5
Oggi h: 01:50 poco_nuvoloso Poco Nuvoloso 13 9 76 1015 10 O/SO 13
Oggi h: 00:50 sereno Sereno 13 9 76 1015 10 O/SO 16.7
Ieri h: 23:50 nuvoloso Nuvoloso 14 9 71 1016 10 O/SO 16.7
Ieri h: 22:50 sereno Sereno 13 10 81 1016 10 SO 13
Ieri h: 21:50 sereno Sereno 16 10 67 1016 10 O/SO 11.1